createdAt,value
2023-02-12T00:00:07.788Z,51.13
2023-02-12T00:01:49.410Z,50.83
2023-02-12T00:03:22.518Z,52.63
2023-02-12T00:04:55.564Z,49.37
2023-02-12T00:06:27.697Z,54.60
2023-02-12T00:08:00.812Z,51.03
2023-02-12T00:09:34.352Z,55.63
2023-02-12T00:11:12.784Z,56.50
2023-02-12T00:12:45.865Z,53.03
2023-02-12T00:14:19.064Z,57.57
2023-02-12T00:15:52.197Z,57.37
2023-02-12T00:17:26.664Z,55.17
2023-02-12T00:19:00.868Z,57.63
2023-02-12T00:20:33.930Z,58.53
2023-02-12T00:22:06.064Z,55.20
2023-02-12T00:23:41.105Z,55.80
2023-02-12T00:25:14.727Z,54.43
2023-02-12T00:26:48.452Z,60.53
2023-02-12T00:28:22.213Z,60.33
2023-02-12T00:29:55.302Z,61.63
2023-02-12T00:31:30.632Z,59.57
2023-02-12T00:33:05.353Z,61.20
2023-02-12T00:34:37.611Z,62.80
2023-02-12T00:36:14.417Z,60.00
2023-02-12T00:37:47.482Z,60.63
2023-02-12T00:39:20.685Z,59.13
2023-02-12T00:40:52.929Z,65.17
2023-02-12T00:42:26.028Z,63.03
2023-02-12T00:43:59.283Z,65.13
2023-02-12T00:45:32.967Z,65.33
2023-02-12T00:47:06.393Z,69.97
2023-02-12T00:48:40.853Z,64.37
2023-02-12T00:50:12.954Z,67.93
2023-02-12T00:51:47.317Z,62.53
2023-02-12T00:53:19.711Z,68.53
2023-02-12T00:54:52.783Z,66.63
2023-02-12T00:56:25.896Z,69.60
2023-02-12T00:57:57.975Z,62.87
2023-02-12T00:59:31.948Z,66.37
2023-02-12T01:01:05.137Z,67.43
2023-02-12T01:02:37.460Z,66.87
2023-02-12T01:04:13.298Z,68.43
2023-02-12T01:05:46.430Z,62.27
2023-02-12T01:07:18.521Z,62.30
2023-02-12T01:08:52.652Z,68.60
2023-02-12T01:10:25.373Z,66.33
2023-02-12T01:11:58.463Z,63.40
2023-02-12T01:13:32.779Z,63.97
2023-02-12T01:15:06.677Z,69.77
2023-02-12T01:16:40.280Z,63.50
2023-02-12T01:18:16.174Z,67.00
2023-02-12T01:19:50.983Z,66.77
2023-02-12T01:21:25.794Z,69.50
2023-02-12T01:22:58.856Z,64.07
2023-02-12T01:24:32.147Z,68.17
2023-02-12T01:26:07.410Z,63.30
2023-02-12T01:27:40.929Z,64.10
2023-02-12T01:29:13.978Z,65.53
2023-02-12T01:30:46.463Z,65.53
2023-02-12T01:32:19.638Z,63.63
2023-02-12T01:33:56.160Z,60.87
2023-02-12T01:35:30.571Z,62.03
2023-02-12T01:37:03.697Z,62.73
2023-02-12T01:38:35.920Z,61.30
2023-02-12T01:40:10.367Z,64.33
2023-02-12T01:41:45.553Z,58.20
2023-02-12T01:43:17.665Z,57.50
2023-02-12T01:45:24.006Z,59.93
2023-02-12T01:46:58.780Z,61.77
2023-02-12T01:48:36.450Z,64.13
2023-02-12T01:50:13.949Z,60.43
2023-02-12T01:51:52.327Z,63.97
2023-02-12T01:53:32.550Z,62.27
2023-02-12T01:55:08.877Z,64.57
2023-02-12T01:56:43.186Z,65.07
2023-02-12T01:58:17.308Z,59.03
2023-02-12T01:59:53.974Z,62.37
2023-02-12T02:01:30.112Z,60.63
2023-02-12T02:03:03.751Z,60.93
2023-02-12T02:04:42.661Z,65.37
2023-02-12T02:06:19.869Z,63.17
2023-02-12T02:07:55.702Z,65.00
2023-02-12T02:09:30.510Z,62.57
2023-02-12T02:11:22.861Z,68.03
2023-02-12T02:13:13.512Z,64.33
2023-02-12T02:14:48.236Z,70.27
2023-02-12T02:16:26.882Z,68.53
2023-02-12T02:18:02.575Z,72.17
2023-02-12T02:20:01.525Z,73.13
2023-02-12T02:21:58.483Z,68.43
2023-02-12T02:24:04.402Z,65.10
2023-02-12T02:26:07.229Z,67.20
2023-02-12T02:27:49.824Z,64.70
2023-02-12T02:29:43.142Z,65.07
2023-02-12T02:31:27.199Z,67.37
2023-02-12T02:33:11.049Z,66.83
2023-02-12T02:34:51.695Z,66.40
2023-02-12T02:36:33.085Z,63.97
2023-02-12T02:38:16.675Z,64.63
2023-02-12T02:39:52.609Z,62.73
2023-02-12T02:41:31.552Z,62.63
2023-02-12T02:43:09.233Z,63.57
2023-02-12T02:44:47.154Z,66.73
2023-02-12T02:46:26.158Z,69.30
2023-02-12T02:48:04.390Z,64.07
2023-02-12T02:49:42.193Z,67.37
2023-02-12T02:51:19.544Z,65.50
2023-02-12T02:53:01.952Z,62.87
2023-02-12T02:54:38.906Z,64.50
2023-02-12T02:56:16.263Z,63.67
2023-02-12T02:57:53.622Z,65.00
2023-02-12T02:59:31.740Z,63.03
2023-02-12T03:01:08.679Z,62.83
2023-02-12T03:02:48.893Z,59.87
2023-02-12T03:04:29.633Z,66.30
2023-02-12T03:06:05.466Z,63.67
2023-02-12T03:07:43.107Z,64.80
2023-02-12T03:09:21.129Z,64.23
2023-02-12T03:10:58.692Z,62.93
2023-02-12T03:12:37.738Z,65.10
2023-02-12T03:14:15.145Z,65.40
2023-02-12T03:15:52.612Z,61.97
2023-02-12T03:17:30.710Z,68.27
2023-02-12T03:19:14.668Z,63.13
2023-02-12T03:20:53.126Z,64.90
2023-02-12T03:22:32.010Z,62.33
2023-02-12T03:24:09.694Z,66.20
2023-02-12T03:25:49.940Z,62.53
2023-02-12T03:27:24.851Z,65.70
2023-02-12T03:28:58.388Z,69.10
2023-02-12T03:30:37.045Z,60.23
2023-02-12T03:32:17.640Z,61.43
2023-02-12T03:33:57.936Z,62.33
2023-02-12T03:35:34.001Z,65.50
2023-02-12T03:37:09.299Z,63.17
2023-02-12T03:38:45.923Z,64.70
2023-02-12T03:40:20.708Z,65.30
2023-02-12T03:41:56.711Z,66.00
2023-02-12T03:43:32.090Z,65.10
2023-02-12T03:45:09.966Z,65.43
2023-02-12T03:46:44.374Z,66.63
2023-02-12T03:48:21.991Z,65.83
2023-02-12T03:49:57.783Z,67.40
2023-02-12T03:51:36.615Z,58.43
2023-02-12T03:53:10.004Z,63.80
2023-02-12T03:54:42.486Z,62.27
2023-02-12T03:56:17.882Z,62.60
2023-02-12T03:57:53.835Z,58.13
2023-02-12T03:59:26.646Z,59.33
2023-02-12T04:01:00.523Z,60.17
2023-02-12T04:02:33.989Z,56.67
2023-02-12T04:04:08.758Z,60.80
2023-02-12T04:05:42.152Z,60.93
2023-02-12T04:07:16.921Z,58.53
2023-02-12T04:08:50.426Z,57.90
2023-02-12T04:10:26.095Z,61.80
2023-02-12T04:12:02.742Z,62.43
2023-02-12T04:13:41.456Z,60.60
2023-02-12T04:15:33.162Z,66.20
2023-02-12T04:17:08.079Z,66.90
2023-02-12T04:18:43.931Z,57.40
2023-02-12T04:20:22.032Z,63.13
2023-02-12T04:21:58.625Z,58.00
2023-02-12T04:23:42.100Z,60.53
2023-02-12T04:25:23.298Z,59.27
2023-02-12T04:26:57.268Z,54.93
2023-02-12T04:28:35.506Z,57.07
2023-02-12T04:30:13.630Z,55.30
2023-02-12T04:31:50.420Z,60.30
2023-02-12T04:33:23.876Z,61.00
2023-02-12T04:34:59.195Z,59.37
2023-02-12T04:36:35.506Z,62.77
2023-02-12T04:38:11.566Z,70.23
2023-02-12T04:39:46.684Z,66.37
2023-02-12T04:41:19.091Z,70.47
2023-02-12T04:42:54.372Z,69.87
2023-02-12T04:44:27.964Z,72.83
2023-02-12T04:46:01.357Z,76.60
2023-02-12T04:47:34.714Z,82.23
2023-02-12T04:49:08.270Z,76.20
2023-02-12T04:50:43.000Z,81.63
2023-02-12T04:52:16.388Z,88.53
2023-02-12T04:53:50.164Z,89.07
2023-02-12T04:55:24.966Z,91.93
2023-02-12T04:56:58.323Z,93.03
2023-02-12T04:58:31.699Z,96.37
2023-02-12T05:00:05.875Z,95.57
2023-02-12T05:01:40.063Z,87.80
2023-02-12T05:03:13.545Z,94.40
2023-02-12T05:04:46.951Z,99.17
2023-02-12T05:06:19.761Z,99.43
2023-02-12T05:07:53.173Z,105.63
2023-02-12T05:09:26.566Z,92.33
2023-02-12T05:11:03.805Z,96.27
2023-02-12T05:12:37.228Z,110.17
2023-02-12T05:14:09.640Z,101.43
2023-02-12T05:15:43.029Z,112.77
2023-02-12T05:17:16.528Z,102.03
2023-02-12T05:18:50.202Z,101.73
2023-02-12T05:20:23.662Z,101.93
2023-02-12T05:21:56.984Z,101.43
2023-02-12T05:23:29.663Z,104.40
2023-02-12T05:25:03.039Z,107.27
2023-02-12T05:26:38.530Z,90.93
2023-02-12T05:28:10.947Z,95.73
2023-02-12T05:29:44.436Z,102.93
2023-02-12T05:31:21.154Z,96.90
2023-02-12T05:32:54.915Z,95.97
2023-02-12T05:34:27.292Z,97.10
2023-02-12T05:36:05.131Z,89.10
2023-02-12T05:37:38.578Z,86.50
2023-02-12T05:39:11.253Z,87.53
2023-02-12T05:40:44.607Z,94.57
2023-02-12T05:42:18.385Z,86.57
2023-02-12T05:43:51.875Z,90.70
2023-02-12T05:45:27.882Z,84.27
2023-02-12T05:47:01.240Z,84.13
2023-02-12T05:48:33.974Z,84.40
2023-02-12T05:50:07.973Z,88.43
2023-02-12T05:51:40.522Z,85.23
2023-02-12T05:53:13.868Z,83.60
2023-02-12T05:54:47.271Z,82.13
2023-02-12T05:56:22.012Z,85.23
2023-02-12T05:57:56.965Z,83.60
2023-02-12T05:59:30.306Z,81.73
2023-02-12T06:01:02.763Z,79.67
2023-02-12T06:02:36.433Z,81.73
2023-02-12T06:04:09.709Z,76.77
2023-02-12T06:05:43.074Z,73.10
2023-02-12T06:07:16.772Z,70.03
2023-02-12T06:08:49.251Z,64.27
2023-02-12T06:10:22.705Z,58.67
2023-02-12T06:11:56.085Z,61.63
2023-02-12T06:13:30.905Z,65.53
2023-02-12T06:15:04.295Z,66.87
2023-02-12T06:16:37.562Z,59.83
2023-02-12T06:18:10.985Z,59.60
2023-02-12T06:19:44.466Z,54.40
2023-02-12T06:21:18.679Z,55.67
2023-02-12T06:22:52.075Z,62.23
2023-02-12T06:24:25.450Z,60.70
2023-02-12T06:25:59.053Z,60.83
2023-02-12T06:27:32.608Z,60.20
2023-02-12T06:29:07.384Z,56.83
2023-02-12T06:30:40.736Z,66.50
2023-02-12T06:32:15.316Z,59.33
2023-02-12T06:33:48.998Z,54.30
2023-02-12T06:35:21.434Z,57.50
2023-02-12T06:36:55.912Z,57.80
2023-02-12T06:38:28.320Z,58.20
2023-02-12T06:40:01.714Z,63.50
2023-02-12T06:41:35.366Z,61.47
2023-02-12T06:43:09.048Z,56.70
2023-02-12T06:44:42.858Z,67.50
2023-02-12T06:46:16.383Z,65.73
2023-02-12T06:47:49.493Z,67.00
2023-02-12T06:49:22.635Z,67.23
2023-02-12T06:50:55.867Z,63.90
2023-02-12T06:52:29.346Z,72.03
2023-02-12T06:54:02.755Z,72.57
2023-02-12T06:55:36.335Z,69.10
2023-02-12T06:57:10.211Z,61.83
2023-02-12T06:58:44.334Z,60.10
2023-02-12T07:00:19.875Z,58.87
2023-02-12T07:01:53.256Z,62.60
2023-02-12T07:03:26.884Z,55.50
2023-02-12T07:05:00.304Z,57.97
2023-02-12T07:06:35.345Z,56.90
2023-02-12T07:08:08.732Z,64.40
2023-02-12T07:09:42.181Z,63.83
2023-02-12T07:11:14.707Z,63.83
2023-02-12T07:12:48.408Z,60.53
2023-02-12T07:14:21.961Z,59.10
2023-02-12T07:15:57.097Z,56.17
2023-02-12T07:17:31.174Z,61.13
2023-02-12T07:19:04.627Z,57.27
2023-02-12T07:20:38.020Z,54.37
2023-02-12T07:22:11.559Z,54.03
2023-02-12T07:23:50.793Z,49.43
2023-02-12T07:25:24.765Z,49.93
2023-02-12T07:26:57.169Z,50.63
2023-02-12T07:28:33.589Z,52.30
2023-02-12T07:30:07.918Z,53.00
2023-02-12T07:31:43.052Z,52.03
2023-02-12T07:33:16.884Z,100.87
2023-02-12T07:34:50.328Z,59.23
2023-02-12T07:36:23.838Z,58.40
2023-02-12T07:37:57.253Z,60.60
2023-02-12T07:39:30.661Z,54.53
2023-02-12T07:41:12.225Z,49.97
2023-02-12T07:42:45.686Z,50.77
2023-02-12T07:44:19.048Z,46.33
2023-02-12T07:45:52.458Z,48.00
2023-02-12T07:47:27.226Z,52.47
2023-02-12T07:49:01.505Z,51.80
2023-02-12T07:50:34.560Z,48.57
2023-02-12T07:52:07.946Z,51.00
2023-02-12T07:53:41.678Z,54.13
2023-02-12T07:55:15.148Z,51.10
2023-02-12T07:56:48.547Z,49.60
2023-02-12T07:58:20.924Z,48.40
2023-02-12T07:59:54.474Z,48.43
2023-02-12T08:01:28.794Z,48.77
2023-02-12T08:03:03.556Z,49.90
2023-02-12T08:04:36.811Z,46.20
2023-02-12T08:06:11.231Z,53.77
2023-02-12T08:07:44.316Z,45.77
2023-02-12T08:09:19.652Z,42.00
2023-02-12T08:10:52.744Z,43.37
2023-02-12T08:12:25.904Z,40.47
2023-02-12T08:14:00.105Z,49.83
2023-02-12T08:15:33.198Z,46.63
2023-02-12T08:17:06.344Z,42.93
2023-02-12T08:18:41.138Z,42.63
2023-02-12T08:20:14.602Z,44.70
2023-02-12T08:21:50.055Z,44.43
2023-02-12T08:23:23.170Z,41.43
2023-02-12T08:24:56.270Z,42.23
2023-02-12T08:26:31.440Z,47.47
2023-02-12T08:28:04.638Z,45.40
2023-02-12T08:29:37.921Z,47.13
2023-02-12T08:31:13.000Z,45.33
2023-02-12T08:32:46.224Z,44.43
2023-02-12T08:34:22.048Z,46.90
2023-02-12T08:36:03.097Z,41.63
2023-02-12T08:37:36.190Z,40.13
2023-02-12T08:39:10.761Z,37.03
2023-02-12T08:40:43.898Z,39.93
2023-02-12T08:42:16.999Z,41.00
2023-02-12T08:43:51.431Z,38.27
2023-02-12T08:45:24.509Z,38.23
2023-02-12T08:46:57.709Z,38.37
2023-02-12T08:48:30.939Z,38.83
2023-02-12T08:50:05.984Z,41.43
2023-02-12T08:51:41.403Z,41.20
2023-02-12T08:53:14.756Z,40.97
2023-02-12T08:54:47.887Z,41.97
2023-02-12T08:56:21.257Z,42.73
2023-02-12T08:57:57.851Z,41.63
2023-02-12T08:59:31.320Z,45.17
2023-02-12T09:01:04.632Z,44.43
2023-02-12T09:02:37.772Z,46.93
2023-02-12T09:04:17.802Z,47.40
2023-02-12T09:05:52.446Z,42.73
2023-02-12T09:07:25.656Z,50.63
2023-02-12T09:08:58.730Z,51.63
2023-02-12T09:10:31.819Z,51.07
2023-02-12T09:12:06.103Z,52.47
2023-02-12T09:13:40.013Z,47.30
2023-02-12T09:15:13.128Z,47.47
2023-02-12T09:16:46.298Z,50.93
2023-02-12T09:18:19.470Z,56.13
2023-02-12T09:19:52.532Z,48.50
2023-02-12T09:21:27.225Z,47.97
2023-02-12T09:23:00.419Z,53.57
2023-02-12T09:24:33.843Z,49.03
2023-02-12T09:26:08.395Z,50.83
2023-02-12T09:27:44.645Z,49.67
2023-02-12T09:29:17.684Z,47.50
2023-02-12T09:30:51.464Z,48.80
2023-02-12T09:32:24.611Z,47.30
2023-02-12T09:34:00.614Z,49.83
2023-02-12T09:35:36.518Z,49.53
2023-02-12T09:37:11.007Z,46.80
2023-02-12T09:38:44.504Z,45.77
2023-02-12T09:40:23.002Z,46.57
2023-02-12T09:42:18.371Z,46.53
2023-02-12T09:43:57.616Z,46.20
2023-02-12T09:45:34.903Z,48.33
2023-02-12T09:47:16.271Z,46.03
2023-02-12T09:48:58.284Z,51.20
2023-02-12T09:50:40.767Z,50.13
2023-02-12T09:52:19.004Z,49.43
2023-02-12T09:54:03.569Z,46.97
2023-02-12T09:55:37.323Z,45.57
2023-02-12T09:57:19.137Z,40.37
2023-02-12T09:58:55.236Z,36.07
2023-02-12T10:00:31.586Z,37.47
2023-02-12T10:02:07.673Z,32.70
2023-02-12T10:03:41.309Z,30.80
2023-02-12T10:05:19.111Z,31.50
2023-02-12T10:07:02.840Z,28.77
2023-02-12T10:08:47.672Z,27.57
2023-02-12T10:10:39.138Z,28.80
2023-02-12T10:12:17.994Z,29.63
2023-02-12T10:13:58.790Z,27.07
2023-02-12T10:15:39.551Z,28.23
2023-02-12T10:17:20.821Z,30.07
2023-02-12T10:19:06.806Z,26.43
2023-02-12T10:20:53.726Z,26.77
2023-02-12T10:22:45.464Z,25.53
2023-02-12T10:24:40.859Z,25.63
2023-02-12T10:26:21.882Z,25.40
2023-02-12T10:27:57.603Z,28.37
2023-02-12T10:29:35.093Z,24.93
2023-02-12T10:31:13.179Z,22.90
2023-02-12T10:32:49.137Z,23.57
2023-02-12T10:34:24.809Z,23.13
2023-02-12T10:36:04.682Z,25.37
2023-02-12T10:37:43.635Z,19.53
2023-02-12T10:39:22.835Z,17.10
2023-02-12T10:41:01.737Z,19.60
2023-02-12T10:42:40.263Z,20.60
2023-02-12T10:44:13.547Z,20.43
2023-02-12T10:45:46.671Z,18.57
2023-02-12T10:47:22.257Z,20.83
2023-02-12T10:48:58.900Z,18.63
2023-02-12T10:50:42.562Z,18.67
2023-02-12T10:52:26.369Z,15.40
2023-02-12T10:54:19.986Z,16.83
2023-02-12T10:56:14.756Z,17.27
2023-02-12T10:57:47.897Z,18.37
2023-02-12T10:59:24.871Z,19.10
2023-02-12T11:01:00.816Z,19.03
2023-02-12T11:02:36.132Z,15.30
2023-02-12T11:04:22.672Z,13.37
2023-02-12T11:05:56.080Z,16.17
2023-02-12T11:07:30.056Z,15.00
2023-02-12T11:09:04.568Z,14.73
2023-02-12T11:10:40.184Z,16.37
2023-02-12T11:12:29.485Z,13.27
2023-02-12T11:14:06.170Z,14.00
2023-02-12T11:15:48.100Z,16.77
2023-02-12T11:17:26.457Z,14.50
2023-02-12T11:19:01.372Z,12.67
2023-02-12T11:20:38.464Z,11.47
2023-02-12T11:22:14.580Z,13.03
2023-02-12T11:23:48.781Z,16.87
2023-02-12T11:25:23.630Z,14.97
2023-02-12T11:27:12.914Z,15.63
2023-02-12T11:28:55.408Z,15.10
2023-02-12T11:30:30.687Z,13.23
2023-02-12T11:32:05.453Z,14.87
2023-02-12T11:33:39.059Z,11.50
2023-02-12T11:35:15.219Z,14.43
2023-02-12T11:36:49.876Z,12.53
2023-02-12T11:38:28.252Z,13.70
2023-02-12T11:40:02.227Z,13.60
2023-02-12T11:41:37.616Z,17.17
2023-02-12T11:43:19.719Z,17.23
2023-02-12T11:44:55.528Z,18.03
2023-02-12T11:46:30.226Z,14.63
2023-02-12T11:48:04.365Z,15.80
2023-02-12T11:49:43.957Z,15.50
2023-02-12T11:51:22.358Z,15.20
2023-02-12T11:52:58.473Z,15.37
2023-02-12T11:54:35.262Z,14.60
2023-02-12T11:56:10.426Z,20.50
2023-02-12T11:57:47.121Z,15.67
2023-02-12T11:59:29.826Z,19.40
2023-02-12T12:01:07.581Z,30.67
2023-02-12T12:02:45.205Z,19.17
2023-02-12T12:04:23.135Z,16.70
2023-02-12T12:06:03.910Z,18.67
2023-02-12T12:07:42.488Z,19.63
2023-02-12T12:09:21.558Z,17.43
2023-02-12T12:11:00.952Z,17.07
2023-02-12T12:12:39.834Z,19.90
2023-02-12T12:14:23.631Z,14.83
2023-02-12T12:16:23.132Z,17.37
2023-02-12T12:18:22.154Z,14.93
2023-02-12T12:20:02.509Z,18.40
2023-02-12T12:21:42.085Z,20.70
2023-02-12T12:23:19.884Z,20.43
2023-02-12T12:24:59.278Z,14.47
2023-02-12T12:26:35.708Z,15.63
2023-02-12T12:28:24.874Z,17.63
2023-02-12T12:30:06.681Z,15.20
2023-02-12T12:31:41.653Z,16.20
2023-02-12T12:33:21.845Z,14.23
2023-02-12T12:34:54.906Z,17.33
2023-02-12T12:36:51.865Z,14.93
2023-02-12T12:38:37.296Z,15.47
2023-02-12T12:40:40.326Z,15.10
2023-02-12T12:42:44.587Z,12.47
2023-02-12T12:44:32.303Z,17.03
2023-02-12T12:46:40.909Z,15.03
2023-02-12T12:48:27.698Z,16.60
2023-02-12T12:50:17.071Z,14.60
2023-02-12T12:52:17.341Z,15.03
2023-02-12T12:54:02.855Z,14.93
2023-02-12T12:56:01.061Z,14.40
2023-02-12T12:57:47.695Z,16.63
2023-02-12T12:59:42.008Z,17.10
2023-02-12T13:01:33.407Z,12.50
2023-02-12T13:03:38.972Z,15.47
2023-02-12T13:05:48.612Z,16.80
2023-02-12T13:07:37.236Z,15.37
2023-02-12T13:09:39.660Z,15.13
2023-02-12T13:11:24.157Z,19.73
2023-02-12T13:13:08.159Z,14.60
2023-02-12T13:14:46.432Z,16.93
2023-02-12T13:16:24.456Z,14.53
2023-02-12T13:18:05.155Z,19.27
2023-02-12T13:19:48.383Z,17.47
2023-02-12T13:21:28.718Z,18.17
2023-02-12T13:23:08.105Z,16.00
2023-02-12T13:24:44.786Z,13.57
2023-02-12T13:26:22.231Z,11.63
2023-02-12T13:27:57.726Z,16.90
2023-02-12T13:29:34.219Z,14.67
2023-02-12T13:31:30.114Z,14.30
2023-02-12T13:33:06.772Z,11.20
2023-02-12T13:34:42.592Z,15.83
2023-02-12T13:36:18.681Z,12.60
2023-02-12T13:37:54.118Z,14.40
2023-02-12T13:39:33.286Z,16.23
2023-02-12T13:41:09.395Z,13.13
2023-02-12T13:42:48.444Z,16.80
2023-02-12T13:44:28.120Z,18.40
2023-02-12T13:46:07.957Z,15.33
2023-02-12T13:47:48.142Z,18.50
2023-02-12T13:49:27.503Z,14.00
2023-02-12T13:51:03.962Z,15.03
2023-02-12T13:52:40.987Z,16.03
2023-02-12T13:54:31.995Z,20.53
2023-02-12T13:56:14.564Z,14.90
2023-02-12T13:57:47.673Z,14.70
2023-02-12T13:59:44.377Z,15.00
2023-02-12T14:01:37.860Z,12.97
2023-02-12T14:03:12.041Z,12.93
2023-02-12T14:04:46.880Z,12.47
2023-02-12T14:06:23.458Z,13.87
2023-02-12T14:08:00.706Z,13.97
2023-02-12T14:09:40.962Z,15.30
2023-02-12T14:11:17.378Z,12.50
2023-02-12T14:12:51.009Z,8.40
2023-02-12T14:14:29.509Z,10.73
2023-02-12T14:16:21.228Z,8.50
2023-02-12T14:17:57.408Z,10.67
2023-02-12T14:19:43.318Z,13.13
2023-02-12T14:21:44.385Z,9.57
2023-02-12T14:23:28.472Z,10.40
2023-02-12T14:25:03.830Z,12.90
2023-02-12T14:26:39.257Z,11.23
2023-02-12T14:28:24.351Z,11.03
2023-02-12T14:30:20.472Z,10.03
2023-02-12T14:31:53.689Z,10.70
2023-02-12T14:33:28.277Z,16.37
2023-02-12T14:35:31.850Z,12.77
2023-02-12T14:37:13.672Z,16.87
2023-02-12T14:39:04.095Z,9.33
2023-02-12T14:40:42.865Z,15.00
2023-02-12T14:42:44.732Z,13.40
2023-02-12T14:44:46.353Z,12.00
2023-02-12T14:46:45.546Z,12.83
2023-02-12T14:48:41.482Z,10.50
2023-02-12T14:50:22.891Z,12.27
2023-02-12T14:52:01.070Z,11.87
2023-02-12T14:53:36.726Z,13.97
2023-02-12T14:55:25.317Z,12.17
2023-02-12T14:57:02.355Z,12.20
2023-02-12T14:58:37.436Z,13.70
2023-02-12T15:00:24.564Z,11.37
2023-02-12T15:02:01.701Z,9.40
2023-02-12T15:03:43.149Z,12.23
2023-02-12T15:05:21.419Z,9.93
2023-02-12T15:06:58.506Z,12.97
2023-02-12T15:08:37.984Z,12.03
2023-02-12T15:10:20.221Z,11.57
2023-02-12T15:12:01.961Z,14.77
2023-02-12T15:13:45.175Z,12.20
2023-02-12T15:15:26.366Z,13.47
2023-02-12T15:17:04.652Z,17.27
2023-02-12T15:18:49.210Z,18.17
2023-02-12T15:20:25.679Z,16.20
2023-02-12T15:21:59.168Z,14.63
2023-02-12T15:23:39.607Z,15.67
2023-02-12T15:25:18.837Z,11.90
2023-02-12T15:26:54.437Z,17.60
2023-02-12T15:28:35.047Z,14.20
2023-02-12T15:30:25.695Z,14.80
2023-02-12T15:32:02.464Z,13.70
2023-02-12T15:33:38.779Z,12.43
2023-02-12T15:35:23.584Z,16.60
2023-02-12T15:36:59.423Z,15.00
2023-02-12T15:38:35.354Z,16.27
2023-02-12T15:40:15.546Z,15.73
2023-02-12T15:41:50.772Z,17.23
2023-02-12T15:43:28.899Z,15.97
2023-02-12T15:45:22.066Z,16.73
2023-02-12T15:46:56.897Z,16.40
2023-02-12T15:48:35.633Z,14.93
2023-02-12T15:50:12.802Z,16.60
2023-02-12T15:51:46.270Z,16.27
2023-02-12T15:53:19.911Z,14.80
2023-02-12T15:54:53.696Z,14.67
2023-02-12T15:56:27.635Z,13.97
2023-02-12T15:58:03.255Z,13.97
2023-02-12T15:59:36.630Z,16.83
2023-02-12T16:01:10.110Z,17.50
2023-02-12T16:02:43.479Z,22.23
2023-02-12T16:04:16.942Z,19.00
2023-02-12T16:05:50.938Z,14.73
2023-02-12T16:07:24.965Z,15.37
2023-02-12T16:09:00.204Z,14.97
2023-02-12T16:10:33.668Z,17.73
2023-02-12T16:12:11.222Z,14.57
2023-02-12T16:13:47.384Z,12.93
2023-02-12T16:15:28.491Z,15.80
2023-02-12T16:17:01.604Z,14.43
2023-02-12T16:18:34.690Z,15.03
2023-02-12T16:20:21.684Z,12.83
2023-02-12T16:21:56.594Z,15.60
2023-02-12T16:23:29.999Z,15.10
2023-02-12T16:25:04.123Z,15.00
2023-02-12T16:26:37.806Z,18.73
2023-02-12T16:28:17.975Z,16.80
2023-02-12T16:29:54.481Z,14.67
2023-02-12T16:31:29.014Z,16.43
2023-02-12T16:33:03.113Z,14.57
2023-02-12T16:34:37.358Z,14.63
2023-02-12T16:36:14.978Z,14.97
2023-02-12T16:37:49.518Z,13.47
2023-02-12T16:39:52.273Z,12.47
2023-02-12T16:41:27.021Z,12.83
2023-02-12T16:43:01.909Z,13.30
2023-02-12T16:44:35.635Z,11.30
2023-02-12T16:46:10.677Z,12.27
2023-02-12T16:47:44.069Z,13.57
2023-02-12T16:49:18.341Z,16.30
2023-02-12T16:50:53.035Z,17.50
2023-02-12T16:52:35.739Z,16.37
2023-02-12T16:54:28.015Z,14.80
2023-02-12T16:56:02.084Z,15.07
2023-02-12T16:57:35.498Z,15.33
2023-02-12T16:59:08.875Z,14.03
2023-02-12T17:00:42.920Z,16.10
2023-02-12T17:02:17.716Z,15.13
2023-02-12T17:03:51.334Z,19.13
2023-02-12T17:05:25.054Z,15.93
2023-02-12T17:06:59.019Z,20.00
2023-02-12T17:08:32.407Z,24.17
2023-02-12T17:10:06.117Z,28.27
2023-02-12T17:11:39.541Z,29.77
2023-02-12T17:13:13.424Z,31.80
2023-02-12T17:14:46.792Z,35.53
2023-02-12T17:16:30.234Z,29.83
2023-02-12T17:18:06.412Z,26.60
2023-02-12T17:19:39.873Z,27.30
2023-02-12T17:21:20.193Z,28.10
2023-02-12T17:22:55.098Z,32.27
2023-02-12T17:24:30.054Z,30.90
2023-02-12T17:26:03.418Z,35.83
2023-02-12T17:27:38.286Z,36.83
2023-02-12T17:29:12.625Z,34.63
2023-02-12T17:30:46.169Z,40.80
2023-02-12T17:32:19.316Z,38.70
2023-02-12T17:33:54.145Z,35.93
2023-02-12T17:35:27.570Z,31.07
2023-02-12T17:37:00.935Z,28.73
2023-02-12T17:38:34.353Z,28.40
2023-02-12T17:40:08.752Z,27.60
2023-02-12T17:41:42.605Z,26.00
2023-02-12T17:43:15.988Z,25.07
2023-02-12T17:44:49.080Z,31.43
2023-02-12T17:46:23.498Z,38.83
2023-02-12T17:47:56.913Z,34.57
2023-02-12T17:49:32.085Z,31.70
2023-02-12T17:51:05.728Z,33.07
2023-02-12T17:52:39.120Z,37.30
2023-02-12T17:54:13.882Z,28.83
2023-02-12T17:55:47.242Z,22.37
2023-02-12T17:57:20.949Z,18.73
2023-02-12T17:58:54.791Z,17.83
2023-02-12T18:00:29.722Z,18.90
2023-02-12T18:02:03.169Z,18.67
2023-02-12T18:03:36.539Z,18.73
2023-02-12T18:05:11.512Z,16.03
2023-02-12T18:06:44.947Z,20.40
2023-02-12T18:08:18.548Z,19.53
2023-02-12T18:09:52.027Z,20.80
2023-02-12T18:11:25.972Z,21.43
2023-02-12T18:12:59.366Z,18.73
2023-02-12T18:14:32.771Z,20.90
2023-02-12T18:16:07.909Z,20.97
2023-02-12T18:17:43.532Z,21.10
2023-02-12T18:19:17.275Z,17.50
2023-02-12T18:20:51.993Z,18.70
2023-02-12T18:22:25.734Z,18.70
2023-02-12T18:23:59.086Z,18.33
2023-02-12T18:25:32.483Z,19.23
2023-02-12T18:27:05.842Z,21.13
2023-02-12T18:28:39.323Z,19.37
2023-02-12T18:30:14.037Z,18.93
2023-02-12T18:31:47.616Z,18.33
2023-02-12T18:33:21.048Z,17.60
2023-02-12T18:34:54.492Z,19.50
2023-02-12T18:36:29.578Z,21.90
2023-02-12T18:38:02.949Z,19.90
2023-02-12T18:39:36.485Z,23.33
2023-02-12T18:41:10.042Z,19.13
2023-02-12T18:42:43.554Z,20.47
2023-02-12T18:44:17.060Z,19.43
2023-02-12T18:45:50.631Z,22.03
2023-02-12T18:47:24.055Z,19.80
2023-02-12T18:48:57.637Z,23.40
2023-02-12T18:50:31.070Z,20.77
2023-02-12T18:52:05.949Z,24.20
2023-02-12T18:53:39.337Z,23.27
2023-02-12T18:55:12.842Z,23.37
2023-02-12T18:56:48.177Z,23.63
2023-02-12T18:58:21.614Z,24.00
2023-02-12T18:59:55.014Z,22.07
2023-02-12T19:01:28.985Z,23.10
2023-02-12T19:03:02.884Z,20.63
2023-02-12T19:04:36.386Z,20.27
2023-02-12T19:06:09.763Z,22.33
2023-02-12T19:07:44.217Z,21.53
2023-02-12T19:09:20.230Z,24.63
2023-02-12T19:10:53.319Z,27.63
2023-02-12T19:12:26.975Z,34.67
2023-02-12T19:14:00.718Z,25.90
2023-02-12T19:15:34.274Z,62.03
2023-02-12T19:17:07.751Z,52.13
2023-02-12T19:18:41.409Z,44.13
2023-02-12T19:20:15.755Z,53.60
2023-02-12T19:21:49.922Z,56.50
2023-02-12T19:23:24.396Z,49.30
2023-02-12T19:24:57.835Z,31.43
2023-02-12T19:26:31.600Z,27.10
2023-02-12T19:28:05.067Z,32.50
2023-02-12T19:29:38.539Z,30.63
2023-02-12T19:31:14.307Z,28.00
2023-02-12T19:32:48.707Z,30.03
2023-02-12T19:34:24.739Z,33.23
2023-02-12T19:35:58.192Z,37.13
2023-02-12T19:37:31.999Z,35.47
2023-02-12T19:39:07.068Z,36.90
2023-02-12T19:40:40.514Z,33.57
2023-02-12T19:42:14.928Z,35.27
2023-02-12T19:43:48.756Z,32.17
2023-02-12T19:45:22.265Z,30.87
2023-02-12T19:46:56.881Z,34.83
2023-02-12T19:48:30.772Z,33.47
2023-02-12T19:50:04.159Z,35.40
2023-02-12T19:51:39.503Z,40.67
2023-02-12T19:53:12.906Z,35.57
2023-02-12T19:54:47.720Z,38.80
2023-02-12T19:56:21.393Z,39.30
2023-02-12T19:57:54.801Z,40.37
2023-02-12T19:59:28.603Z,42.80
2023-02-12T20:01:02.342Z,38.87
2023-02-12T20:02:35.775Z,36.50
2023-02-12T20:04:13.676Z,38.10
2023-02-12T20:05:52.022Z,36.63
2023-02-12T20:07:25.466Z,36.47
2023-02-12T20:08:59.423Z,35.47
2023-02-12T20:10:34.227Z,35.60
2023-02-12T20:12:07.897Z,38.50
2023-02-12T20:13:41.697Z,43.33
2023-02-12T20:15:15.185Z,40.63
2023-02-12T20:16:48.580Z,42.33
2023-02-12T20:18:23.122Z,41.23
2023-02-12T20:19:56.505Z,39.90
2023-02-12T20:21:30.039Z,43.13
2023-02-12T20:23:03.600Z,42.20
2023-02-12T20:24:37.013Z,43.43
2023-02-12T20:26:14.078Z,40.77
2023-02-12T20:27:47.581Z,39.67
2023-02-12T20:29:21.047Z,39.43
2023-02-12T20:30:55.081Z,39.30
2023-02-12T20:32:28.816Z,40.93
2023-02-12T20:34:03.188Z,40.10
2023-02-12T20:35:37.222Z,39.23
2023-02-12T20:37:10.583Z,36.93
2023-02-12T20:38:44.898Z,37.47
2023-02-12T20:40:18.563Z,42.63
2023-02-12T20:41:53.336Z,37.83
2023-02-12T20:43:26.717Z,37.40
2023-02-12T20:45:00.154Z,33.90
2023-02-12T20:46:36.121Z,34.17
2023-02-12T20:48:09.580Z,36.13